sensor_id;sensor_type;location;lat;lon;timestamp;pressure;altitude;pressure_sealevel;temperature;humidity
59391;BME280;53405;57.012;40.984;2023-01-29T00:01:29;100283.50;;;-3.29;90.97
59391;BME280;53405;57.012;40.984;2023-01-29T00:04:20;100278.84;;;-3.22;90.68
59391;BME280;53405;57.012;40.984;2023-01-29T00:07:07;100285.66;;;-3.05;90.71
59391;BME280;53405;57.012;40.984;2023-01-29T00:09:57;100274.97;;;-3.14;90.27
59391;BME280;53405;57.012;40.984;2023-01-29T00:12:44;100267.56;;;-3.04;90.67
59391;BME280;53405;57.012;40.984;2023-01-29T00:15:32;100271.28;;;-3.25;90.15
59391;BME280;53405;57.012;40.984;2023-01-29T00:18:20;100270.22;;;-3.21;91.89
59391;BME280;53405;57.012;40.984;2023-01-29T00:21:13;100271.53;;;-3.14;91.25
59391;BME280;53405;57.012;40.984;2023-01-29T00:24:01;100266.03;;;-3.24;91.54
59391;BME280;53405;57.012;40.984;2023-01-29T00:26:49;100246.63;;;-3.14;91.46
59391;BME280;53405;57.012;40.984;2023-01-29T00:29:36;100256.38;;;-3.04;90.76
59391;BME280;53405;57.012;40.984;2023-01-29T00:32:24;100229.97;;;-3.24;90.39
59391;BME280;53405;57.012;40.984;2023-01-29T00:35:12;100231.56;;;-3.37;90.46
59391;BME280;53405;57.012;40.984;2023-01-29T00:38:00;100234.31;;;-3.40;91.41
59391;BME280;53405;57.012;40.984;2023-01-29T00:40:47;100234.88;;;-3.51;91.87
59391;BME280;53405;57.012;40.984;2023-01-29T00:43:58;100225.25;;;-3.48;92.34
59391;BME280;53405;57.012;40.984;2023-01-29T00:47:04;100241.25;;;-3.58;92.89
59391;BME280;53405;57.012;40.984;2023-01-29T00:50:12;100213.97;;;-3.78;93.69
59391;BME280;53405;57.012;40.984;2023-01-29T00:53:00;100224.66;;;-3.69;93.94
59391;BME280;53405;57.012;40.984;2023-01-29T00:55:47;100221.22;;;-3.69;94.19
59391;BME280;53405;57.012;40.984;2023-01-29T00:58:35;100215.09;;;-3.51;93.88
59391;BME280;53405;57.012;40.984;2023-01-29T01:01:23;100202.88;;;-3.47;94.32
59391;BME280;53405;57.012;40.984;2023-01-29T01:04:31;100199.56;;;-3.49;93.74
59391;BME280;53405;57.012;40.984;2023-01-29T01:07:20;100210.03;;;-3.52;93.83
59391;BME280;53405;57.012;40.984;2023-01-29T01:10:16;100197.72;;;-3.47;94.70
59391;BME280;53405;57.012;40.984;2023-01-29T01:13:10;100201.56;;;-3.38;94.05
59391;BME280;53405;57.012;40.984;2023-01-29T01:16:01;100205.13;;;-3.41;93.83
59391;BME280;53405;57.012;40.984;2023-01-29T01:18:48;100163.38;;;-3.62;93.92
59391;BME280;53405;57.012;40.984;2023-01-29T01:21:36;100182.38;;;-3.49;94.05
59391;BME280;53405;57.012;40.984;2023-01-29T01:24:24;100190.84;;;-3.47;93.95
59391;BME280;53405;57.012;40.984;2023-01-29T01:27:13;100199.16;;;-3.41;94.10
59391;BME280;53405;57.012;40.984;2023-01-29T01:30:02;100214.53;;;-3.40;93.92
59391;BME280;53405;57.012;40.984;2023-01-29T01:32:50;100194.34;;;-3.48;94.24
59391;BME280;53405;57.012;40.984;2023-01-29T01:35:38;100188.94;;;-3.59;94.13
59391;BME280;53405;57.012;40.984;2023-01-29T01:38:30;100204.47;;;-3.45;94.61
59391;BME280;53405;57.012;40.984;2023-01-29T01:41:20;100194.66;;;-3.38;94.43
59391;BME280;53405;57.012;40.984;2023-01-29T01:51:02;100165.50;;;-3.22;93.67
59391;BME280;53405;57.012;40.984;2023-01-29T01:53:56;100160.75;;;-3.30;92.93
59391;BME280;53405;57.012;40.984;2023-01-29T01:56:56;100161.19;;;-3.54;93.35
59391;BME280;53405;57.012;40.984;2023-01-29T01:59:58;100183.47;;;-3.37;93.55
59391;BME280;53405;57.012;40.984;2023-01-29T02:03:03;100153.97;;;-3.63;93.88
59391;BME280;53405;57.012;40.984;2023-01-29T02:06:12;100167.50;;;-3.28;93.35
59391;BME280;53405;57.012;40.984;2023-01-29T02:09:23;100149.56;;;-3.29;93.58
59391;BME280;53405;57.012;40.984;2023-01-29T02:12:25;100151.66;;;-3.36;92.49
59391;BME280;53405;57.012;40.984;2023-01-29T02:15:17;100139.00;;;-3.56;92.75
59391;BME280;53405;57.012;40.984;2023-01-29T02:18:05;100144.16;;;-3.56;92.96
59391;BME280;53405;57.012;40.984;2023-01-29T02:21:14;100144.25;;;-3.58;92.67
59391;BME280;53405;57.012;40.984;2023-01-29T02:24:41;100147.09;;;-3.63;93.12
59391;BME280;53405;57.012;40.984;2023-01-29T02:30:40;100149.25;;;-3.39;92.17
59391;BME280;53405;57.012;40.984;2023-01-29T02:36:44;100128.59;;;-3.23;92.44
59391;BME280;53405;57.012;40.984;2023-01-29T02:42:32;100130.28;;;-3.38;90.90
59391;BME280;53405;57.012;40.984;2023-01-29T02:48:35;100138.00;;;-3.38;90.02
59391;BME280;53405;57.012;40.984;2023-01-29T02:54:58;100113.53;;;-3.61;91.24
59391;BME280;53405;57.012;40.984;2023-01-29T02:57:57;100103.56;;;-3.67;91.54
59391;BME280;53405;57.012;40.984;2023-01-29T03:00:48;100101.00;;;-3.83;91.84
59391;BME280;53405;57.012;40.984;2023-01-29T03:03:40;100077.22;;;-3.72;92.06
59391;BME280;53405;57.012;40.984;2023-01-29T03:06:47;100084.41;;;-3.31;91.65
59391;BME280;53405;57.012;40.984;2023-01-29T03:09:44;100069.50;;;-3.56;90.94
59391;BME280;53405;57.012;40.984;2023-01-29T03:12:37;100068.94;;;-3.61;90.95
59391;BME280;53405;57.012;40.984;2023-01-29T03:15:30;100078.41;;;-3.62;91.05
59391;BME280;53405;57.012;40.984;2023-01-29T03:18:49;100075.50;;;-3.72;91.29
59391;BME280;53405;57.012;40.984;2023-01-29T03:21:43;100078.66;;;-3.83;91.42
59391;BME280;53405;57.012;40.984;2023-01-29T03:24:50;100076.09;;;-3.67;91.95
59391;BME280;53405;57.012;40.984;2023-01-29T03:28:03;100080.00;;;-3.59;90.50
59391;BME280;53405;57.012;40.984;2023-01-29T03:31:12;100075.81;;;-3.62;90.61
59391;BME280;53405;57.012;40.984;2023-01-29T03:34:23;100070.69;;;-3.62;90.59
59391;BME280;53405;57.012;40.984;2023-01-29T03:37:50;100066.78;;;-3.69;90.03
59391;BME280;53405;57.012;40.984;2023-01-29T03:40:45;100049.69;;;-3.70;90.73
59391;BME280;53405;57.012;40.984;2023-01-29T03:46:49;100064.53;;;-3.91;90.70
59391;BME280;53405;57.012;40.984;2023-01-29T03:55:42;100056.97;;;-3.78;91.92
59391;BME280;53405;57.012;40.984;2023-01-29T03:58:50;100046.03;;;-3.82;90.85
59391;BME280;53405;57.012;40.984;2023-01-29T04:01:53;100043.63;;;-3.85;90.56
59391;BME280;53405;57.012;40.984;2023-01-29T04:04:46;100040.41;;;-3.89;90.27
59391;BME280;53405;57.012;40.984;2023-01-29T04:07:37;100030.34;;;-3.77;89.88
59391;BME280;53405;57.012;40.984;2023-01-29T04:10:28;100020.19;;;-3.65;89.95
59391;BME280;53405;57.012;40.984;2023-01-29T04:13:16;100021.03;;;-3.80;88.97
59391;BME280;53405;57.012;40.984;2023-01-29T04:16:10;100006.78;;;-3.86;89.18
59391;BME280;53405;57.012;40.984;2023-01-29T04:19:17;100019.97;;;-3.76;89.22
59391;BME280;53405;57.012;40.984;2023-01-29T04:22:11;99993.22;;;-3.73;88.82
59391;BME280;53405;57.012;40.984;2023-01-29T04:25:04;100009.09;;;-3.81;88.31
59391;BME280;53405;57.012;40.984;2023-01-29T04:28:03;100015.81;;;-3.78;88.88
59391;BME280;53405;57.012;40.984;2023-01-29T04:30:58;100018.72;;;-3.69;87.90
59391;BME280;53405;57.012;40.984;2023-01-29T04:40:07;100005.72;;;-3.51;87.77
59391;BME280;53405;57.012;40.984;2023-01-29T04:43:27;100002.00;;;-3.61;87.51
59391;BME280;53405;57.012;40.984;2023-01-29T04:46:34;100005.19;;;-3.42;86.88
59391;BME280;53405;57.012;40.984;2023-01-29T04:49:34;99999.38;;;-3.76;87.00
59391;BME280;53405;57.012;40.984;2023-01-29T04:55:27;99994.72;;;-3.85;87.70
59391;BME280;53405;57.012;40.984;2023-01-29T05:01:18;99976.97;;;-3.90;87.45
59391;BME280;53405;57.012;40.984;2023-01-29T05:04:12;99992.25;;;-3.87;87.74
59391;BME280;53405;57.012;40.984;2023-01-29T05:07:03;99988.03;;;-3.88;87.31
59391;BME280;53405;57.012;40.984;2023-01-29T05:09:52;99997.38;;;-3.87;87.46
59391;BME280;53405;57.012;40.984;2023-01-29T05:12:42;99986.31;;;-3.42;85.63
59391;BME280;53405;57.012;40.984;2023-01-29T05:15:38;99983.78;;;-3.58;86.11
59391;BME280;53405;57.012;40.984;2023-01-29T05:18:28;99957.78;;;-3.84;86.34
59391;BME280;53405;57.012;40.984;2023-01-29T05:21:16;99976.94;;;-3.74;86.47
59391;BME280;53405;57.012;40.984;2023-01-29T05:24:07;99968.13;;;-3.70;87.65
59391;BME280;53405;57.012;40.984;2023-01-29T05:26:55;99973.81;;;-3.79;86.78
59391;BME280;53405;57.012;40.984;2023-01-29T05:30:01;99967.75;;;-3.78;86.63
59391;BME280;53405;57.012;40.984;2023-01-29T05:32:49;99971.88;;;-3.75;87.04
59391;BME280;53405;57.012;40.984;2023-01-29T05:35:36;99976.22;;;-3.76;87.02
59391;BME280;53405;57.012;40.984;2023-01-29T05:38:24;99979.94;;;-3.66;87.32
59391;BME280;53405;57.012;40.984;2023-01-29T05:41:12;99963.38;;;-3.61;86.88
59391;BME280;53405;57.012;40.984;2023-01-29T05:43:59;99969.31;;;-3.75;86.67
59391;BME280;53405;57.012;40.984;2023-01-29T05:46:47;99966.91;;;-3.78;87.03
59391;BME280;53405;57.012;40.984;2023-01-29T05:49:35;99965.00;;;-3.75;87.08
59391;BME280;53405;57.012;40.984;2023-01-29T05:52:24;99968.56;;;-3.77;87.21
59391;BME280;53405;57.012;40.984;2023-01-29T05:55:12;99957.03;;;-3.70;87.13
59391;BME280;53405;57.012;40.984;2023-01-29T05:58:00;99961.81;;;-3.64;86.96
59391;BME280;53405;57.012;40.984;2023-01-29T06:00:48;99964.97;;;-3.59;86.85
59391;BME280;53405;57.012;40.984;2023-01-29T06:03:36;99970.63;;;-3.68;86.80
59391;BME280;53405;57.012;40.984;2023-01-29T06:06:24;99955.22;;;-3.84;87.00
59391;BME280;53405;57.012;40.984;2023-01-29T06:09:11;99953.72;;;-3.88;87.45
59391;BME280;53405;57.012;40.984;2023-01-29T06:11:59;99961.06;;;-3.66;88.01
59391;BME280;53405;57.012;40.984;2023-01-29T06:14:46;99958.38;;;-3.34;87.87
59391;BME280;53405;57.012;40.984;2023-01-29T06:17:34;99955.63;;;-3.31;87.13
59391;BME280;53405;57.012;40.984;2023-01-29T06:20:21;99945.97;;;-3.42;86.60
59391;BME280;53405;57.012;40.984;2023-01-29T06:23:11;99943.88;;;-3.21;86.99
59391;BME280;53405;57.012;40.984;2023-01-29T06:26:07;99942.22;;;-2.93;85.58
59391;BME280;53405;57.012;40.984;2023-01-29T06:28:55;99932.00;;;-2.95;85.30
59391;BME280;53405;57.012;40.984;2023-01-29T06:31:43;99947.34;;;-3.08;85.77
59391;BME280;53405;57.012;40.984;2023-01-29T06:34:30;99936.69;;;-3.01;85.13
59391;BME280;53405;57.012;40.984;2023-01-29T06:37:18;99933.28;;;-3.31;85.01
59391;BME280;53405;57.012;40.984;2023-01-29T06:40:07;99931.16;;;-3.24;85.54
59391;BME280;53405;57.012;40.984;2023-01-29T06:42:54;99915.41;;;-3.48;86.36
59391;BME280;53405;57.012;40.984;2023-01-29T06:45:53;99916.53;;;-3.23;85.70
59391;BME280;53405;57.012;40.984;2023-01-29T06:48:41;99920.84;;;-3.24;84.68
59391;BME280;53405;57.012;40.984;2023-01-29T06:51:29;99923.97;;;-3.19;84.97
59391;BME280;53405;57.012;40.984;2023-01-29T06:54:16;99902.63;;;-2.92;84.48
59391;BME280;53405;57.012;40.984;2023-01-29T06:57:04;99899.06;;;-3.04;84.10
59391;BME280;53405;57.012;40.984;2023-01-29T06:59:52;99906.06;;;-2.92;83.76
59391;BME280;53405;57.012;40.984;2023-01-29T07:02:39;99915.25;;;-3.02;82.36
59391;BME280;53405;57.012;40.984;2023-01-29T07:05:30;99883.34;;;-3.14;83.22
59391;BME280;53405;57.012;40.984;2023-01-29T07:08:18;99896.94;;;-3.26;82.07
59391;BME280;53405;57.012;40.984;2023-01-29T07:11:11;99886.25;;;-3.34;82.62
59391;BME280;53405;57.012;40.984;2023-01-29T07:13:59;99895.38;;;-3.14;82.20
59391;BME280;53405;57.012;40.984;2023-01-29T07:16:46;99890.84;;;-3.39;81.31
59391;BME280;53405;57.012;40.984;2023-01-29T07:19:34;99870.34;;;-3.41;82.14
59391;BME280;53405;57.012;40.984;2023-01-29T07:22:21;99885.78;;;-3.27;81.92
59391;BME280;53405;57.012;40.984;2023-01-29T07:25:08;99887.38;;;-3.38;81.74
59391;BME280;53405;57.012;40.984;2023-01-29T07:27:59;99862.81;;;-3.44;82.32
59391;BME280;53405;57.012;40.984;2023-01-29T07:30:47;99867.03;;;-3.43;81.86
59391;BME280;53405;57.012;40.984;2023-01-29T07:33:34;99876.72;;;-3.32;82.11
59391;BME280;53405;57.012;40.984;2023-01-29T07:36:22;99869.25;;;-3.22;81.81
59391;BME280;53405;57.012;40.984;2023-01-29T07:39:10;99833.75;;;-3.32;81.34
59391;BME280;53405;57.012;40.984;2023-01-29T07:41:58;99891.78;;;-3.12;80.55
59391;BME280;53405;57.012;40.984;2023-01-29T07:44:48;99887.63;;;-3.14;80.90
59391;BME280;53405;57.012;40.984;2023-01-29T07:47:36;99880.56;;;-3.25;80.48
59391;BME280;53405;57.012;40.984;2023-01-29T07:50:27;99871.75;;;-3.35;81.50
59391;BME280;53405;57.012;40.984;2023-01-29T07:53:14;99882.50;;;-3.14;82.09
59391;BME280;53405;57.012;40.984;2023-01-29T07:56:02;99848.66;;;-3.22;80.87
59391;BME280;53405;57.012;40.984;2023-01-29T07:58:52;99865.84;;;-3.09;80.45
59391;BME280;53405;57.012;40.984;2023-01-29T08:01:40;99866.94;;;-3.13;80.77
59391;BME280;53405;57.012;40.984;2023-01-29T08:04:30;99860.16;;;-3.14;80.43
59391;BME280;53405;57.012;40.984;2023-01-29T08:07:18;99864.34;;;-2.98;79.84
59391;BME280;53405;57.012;40.984;2023-01-29T08:10:07;99853.16;;;-3.12;79.12
59391;BME280;53405;57.012;40.984;2023-01-29T08:13:00;99874.38;;;-3.08;79.54
59391;BME280;53405;57.012;40.984;2023-01-29T08:15:50;99866.44;;;-2.91;77.76
59391;BME280;53405;57.012;40.984;2023-01-29T08:18:41;99865.53;;;-2.89;78.66
59391;BME280;53405;57.012;40.984;2023-01-29T08:21:32;99855.94;;;-2.87;79.13
59391;BME280;53405;57.012;40.984;2023-01-29T08:24:19;99843.94;;;-2.60;79.06
59391;BME280;53405;57.012;40.984;2023-01-29T08:27:10;99848.28;;;-2.75;77.26
59391;BME280;53405;57.012;40.984;2023-01-29T08:29:57;99853.03;;;-2.96;77.53
59391;BME280;53405;57.012;40.984;2023-01-29T08:32:45;99849.41;;;-2.51;78.10
59391;BME280;53405;57.012;40.984;2023-01-29T08:35:34;99855.47;;;-2.80;76.64
59391;BME280;53405;57.012;40.984;2023-01-29T08:38:21;99838.84;;;-3.03;77.24
59391;BME280;53405;57.012;40.984;2023-01-29T08:41:09;99854.84;;;-2.83;77.10
59391;BME280;53405;57.012;40.984;2023-01-29T08:43:56;99843.16;;;-2.89;77.27
59391;BME280;53405;57.012;40.984;2023-01-29T08:46:46;99844.81;;;-2.88;77.40
59391;BME280;53405;57.012;40.984;2023-01-29T08:49:36;99834.44;;;-2.59;77.01
59391;BME280;53405;57.012;40.984;2023-01-29T08:52:26;99826.97;;;-2.37;75.09
59391;BME280;53405;57.012;40.984;2023-01-29T08:55:14;99812.19;;;-2.47;76.56
59391;BME280;53405;57.012;40.984;2023-01-29T08:58:03;99826.84;;;-2.75;75.72
59391;BME280;53405;57.012;40.984;2023-01-29T09:00:51;99834.56;;;-2.75;77.09
59391;BME280;53405;57.012;40.984;2023-01-29T09:03:39;99845.03;;;-2.64;75.11
59391;BME280;53405;57.012;40.984;2023-01-29T09:06:30;99826.03;;;-2.76;75.64
59391;BME280;53405;57.012;40.984;2023-01-29T09:09:18;99831.72;;;-2.70;76.38
59391;BME280;53405;57.012;40.984;2023-01-29T09:12:05;99820.25;;;-2.94;75.02
59391;BME280;53405;57.012;40.984;2023-01-29T09:14:53;99812.19;;;-3.02;76.20
59391;BME280;53405;57.012;40.984;2023-01-29T09:17:43;99817.97;;;-2.98;76.07
59391;BME280;53405;57.012;40.984;2023-01-29T09:20:31;99794.75;;;-2.98;75.22
59391;BME280;53405;57.012;40.984;2023-01-29T09:23:19;99804.34;;;-2.73;74.42
59391;BME280;53405;57.012;40.984;2023-01-29T09:26:10;99804.81;;;-2.66;74.27
59391;BME280;53405;57.012;40.984;2023-01-29T09:28:59;99806.75;;;-2.70;73.53
59391;BME280;53405;57.012;40.984;2023-01-29T09:32:04;99802.59;;;-2.45;71.22
59391;BME280;53405;57.012;40.984;2023-01-29T09:34:51;99782.69;;;-2.83;72.53
59391;BME280;53405;57.012;40.984;2023-01-29T09:37:38;99780.41;;;-2.88;71.73
59391;BME280;53405;57.012;40.984;2023-01-29T09:41:31;99784.41;;;-2.84;72.92
59391;BME280;53405;57.012;40.984;2023-01-29T09:43:54;99776.84;;;-2.73;73.60
59391;BME280;53405;57.012;40.984;2023-01-29T09:46:45;99759.44;;;-2.96;72.07
59391;BME280;53405;57.012;40.984;2023-01-29T09:49:37;99763.22;;;-2.75;71.56
59391;BME280;53405;57.012;40.984;2023-01-29T09:52:38;99754.66;;;-3.02;71.88
59391;BME280;53405;57.012;40.984;2023-01-29T09:58:23;99754.47;;;-2.99;72.17
59391;BME280;53405;57.012;40.984;2023-01-29T10:01:24;99754.53;;;-2.86;73.74
59391;BME280;53405;57.012;40.984;2023-01-29T10:07:30;99753.47;;;-2.84;72.70
59391;BME280;53405;57.012;40.984;2023-01-29T10:19:46;99724.69;;;-2.63;71.12
59391;BME280;53405;57.012;40.984;2023-01-29T10:25:23;99730.47;;;-2.60;70.87
59391;BME280;53405;57.012;40.984;2023-01-29T10:28:26;99719.25;;;-2.86;70.96
59391;BME280;53405;57.012;40.984;2023-01-29T10:31:28;99711.09;;;-2.93;71.72
59391;BME280;53405;57.012;40.984;2023-01-29T10:37:20;99705.06;;;-2.79;72.18
59391;BME280;53405;57.012;40.984;2023-01-29T10:40:35;99692.06;;;-2.77;71.88
59391;BME280;53405;57.012;40.984;2023-01-29T10:55:51;99680.88;;;-2.63;72.84
59391;BME280;53405;57.012;40.984;2023-01-29T10:58:54;99683.19;;;-2.73;72.51
59391;BME280;53405;57.012;40.984;2023-01-29T11:01:41;99671.44;;;-2.90;73.04
59391;BME280;53405;57.012;40.984;2023-01-29T11:04:30;99669.91;;;-2.67;73.21
59391;BME280;53405;57.012;40.984;2023-01-29T11:07:20;99668.97;;;-2.79;74.32
59391;BME280;53405;57.012;40.984;2023-01-29T11:10:13;99663.16;;;-2.82;74.54
59391;BME280;53405;57.012;40.984;2023-01-29T11:13:04;99648.94;;;-2.88;73.90
59391;BME280;53405;57.012;40.984;2023-01-29T11:15:52;99635.09;;;-3.00;73.80
59391;BME280;53405;57.012;40.984;2023-01-29T11:18:52;99651.75;;;-2.78;76.01
59391;BME280;53405;57.012;40.984;2023-01-29T11:21:54;99650.94;;;-2.66;73.60
59391;BME280;53405;57.012;40.984;2023-01-29T11:24:43;99645.47;;;-2.74;73.44
59391;BME280;53405;57.012;40.984;2023-01-29T11:27:33;99648.06;;;-2.48;74.00
59391;BME280;53405;57.012;40.984;2023-01-29T11:31:00;99642.09;;;-2.49;72.91
59391;BME280;53405;57.012;40.984;2023-01-29T11:33:40;99636.69;;;-2.59;73.36
59391;BME280;53405;57.012;40.984;2023-01-29T11:36:35;99633.00;;;-2.42;74.21
59391;BME280;53405;57.012;40.984;2023-01-29T11:39:25;99616.19;;;-2.60;72.48
59391;BME280;53405;57.012;40.984;2023-01-29T11:42:19;99645.19;;;-2.69;73.32
59391;BME280;53405;57.012;40.984;2023-01-29T11:45:27;99607.34;;;-3.09;74.38
59391;BME280;53405;57.012;40.984;2023-01-29T11:48:19;99649.06;;;-2.77;74.83
59391;BME280;53405;57.012;40.984;2023-01-29T11:51:10;99648.47;;;-2.67;74.36
59391;BME280;53405;57.012;40.984;2023-01-29T11:54:01;99646.19;;;-2.59;74.08
59391;BME280;53405;57.012;40.984;2023-01-29T11:56:50;99630.63;;;-2.45;73.65
59391;BME280;53405;57.012;40.984;2023-01-29T11:59:42;99649.28;;;-2.67;74.13
59391;BME280;53405;57.012;40.984;2023-01-29T12:02:36;99634.88;;;-2.57;73.65
59391;BME280;53405;57.012;40.984;2023-01-29T12:05:25;99638.25;;;-2.69;74.18
59391;BME280;53405;57.012;40.984;2023-01-29T12:08:16;99644.00;;;-2.78;74.87
59391;BME280;53405;57.012;40.984;2023-01-29T12:11:27;99635.16;;;-2.74;74.98
59391;BME280;53405;57.012;40.984;2023-01-29T12:14:29;99632.19;;;-2.55;74.18
59391;BME280;53405;57.012;40.984;2023-01-29T12:17:21;99634.88;;;-2.69;74.48
59391;BME280;53405;57.012;40.984;2023-01-29T12:20:17;99626.19;;;-2.68;74.40
59391;BME280;53405;57.012;40.984;2023-01-29T12:26:08;99611.63;;;-2.82;75.25
59391;BME280;53405;57.012;40.984;2023-01-29T12:35:34;99612.97;;;-2.38;74.66
59391;BME280;53405;57.012;40.984;2023-01-29T12:38:23;99611.63;;;-2.31;74.80
59391;BME280;53405;57.012;40.984;2023-01-29T12:41:27;99604.94;;;-2.46;74.21
59391;BME280;53405;57.012;40.984;2023-01-29T12:50:27;99599.69;;;-2.45;75.09
59391;BME280;53405;57.012;40.984;2023-01-29T12:53:24;99591.00;;;-2.31;76.51
59391;BME280;53405;57.012;40.984;2023-01-29T12:56:27;99576.06;;;-2.64;74.83
59391;BME280;53405;57.012;40.984;2023-01-29T12:59:31;99579.38;;;-2.75;75.61
59391;BME280;53405;57.012;40.984;2023-01-29T13:02:31;99590.09;;;-2.68;75.77
59391;BME280;53405;57.012;40.984;2023-01-29T13:05:26;99583.38;;;-2.84;76.02
59391;BME280;53405;57.012;40.984;2023-01-29T13:15:02;99578.47;;;-2.74;77.35
59391;BME280;53405;57.012;40.984;2023-01-29T13:18:16;99580.94;;;-2.73;77.00
59391;BME280;53405;57.012;40.984;2023-01-29T13:21:13;99583.91;;;-2.53;75.91
59391;BME280;53405;57.012;40.984;2023-01-29T13:24:12;99592.16;;;-2.74;75.80
59391;BME280;53405;57.012;40.984;2023-01-29T13:27:01;99572.13;;;-2.96;76.55
59391;BME280;53405;57.012;40.984;2023-01-29T13:29:49;99593.19;;;-2.76;78.15
59391;BME280;53405;57.012;40.984;2023-01-29T13:32:37;99585.44;;;-2.76;77.34
59391;BME280;53405;57.012;40.984;2023-01-29T13:35:25;99559.34;;;-2.97;78.22
59391;BME280;53405;57.012;40.984;2023-01-29T13:38:38;99585.88;;;-2.57;79.12
59391;BME280;53405;57.012;40.984;2023-01-29T13:41:40;99587.31;;;-2.52;78.19
59391;BME280;53405;57.012;40.984;2023-01-29T13:44:34;99578.75;;;-2.53;79.73
59391;BME280;53405;57.012;40.984;2023-01-29T13:47:26;99576.16;;;-2.53;81.59
59391;BME280;53405;57.012;40.984;2023-01-29T13:50:42;99579.44;;;-2.38;79.34
59391;BME280;53405;57.012;40.984;2023-01-29T13:53:37;99578.84;;;-2.42;79.51
59391;BME280;53405;57.012;40.984;2023-01-29T13:59:47;99578.03;;;-2.68;80.39
59391;BME280;53405;57.012;40.984;2023-01-29T14:02:31;99572.03;;;-2.68;80.58
59391;BME280;53405;57.012;40.984;2023-01-29T14:08:37;99558.66;;;-2.74;81.66
59391;BME280;53405;57.012;40.984;2023-01-29T14:11:33;99564.41;;;-2.70;81.91
59391;BME280;53405;57.012;40.984;2023-01-29T14:17:37;99571.22;;;-2.82;82.80
59391;BME280;53405;57.012;40.984;2023-01-29T14:20:37;99563.91;;;-2.75;81.67
59391;BME280;53405;57.012;40.984;2023-01-29T14:23:49;99566.19;;;-2.83;81.71
59391;BME280;53405;57.012;40.984;2023-01-29T14:29:25;99581.66;;;-2.70;82.08
59391;BME280;53405;57.012;40.984;2023-01-29T14:32:22;99575.22;;;-2.78;82.04
59391;BME280;53405;57.012;40.984;2023-01-29T14:35:20;99582.25;;;-2.93;82.20
59391;BME280;53405;57.012;40.984;2023-01-29T14:38:12;99584.50;;;-3.14;82.41
59391;BME280;53405;57.012;40.984;2023-01-29T14:41:14;99574.50;;;-3.18;83.09
59391;BME280;53405;57.012;40.984;2023-01-29T14:56:33;99575.75;;;-2.85;82.79
59391;BME280;53405;57.012;40.984;2023-01-29T14:59:28;99534.00;;;-3.16;82.89
59391;BME280;53405;57.012;40.984;2023-01-29T15:02:19;99578.41;;;-3.13;83.00
59391;BME280;53405;57.012;40.984;2023-01-29T15:05:16;99567.59;;;-3.05;83.46
59391;BME280;53405;57.012;40.984;2023-01-29T15:08:12;99569.16;;;-3.02;82.77
59391;BME280;53405;57.012;40.984;2023-01-29T15:11:10;99571.03;;;-2.79;83.13
59391;BME280;53405;57.012;40.984;2023-01-29T15:14:28;99565.03;;;-2.92;84.19
59391;BME280;53405;57.012;40.984;2023-01-29T15:17:24;99569.38;;;-2.93;82.63
59391;BME280;53405;57.012;40.984;2023-01-29T15:20:30;99571.03;;;-2.92;84.35
59391;BME280;53405;57.012;40.984;2023-01-29T15:23:26;99563.69;;;-2.98;84.25
59391;BME280;53405;57.012;40.984;2023-01-29T15:26:19;99558.28;;;-3.20;84.76
59391;BME280;53405;57.012;40.984;2023-01-29T15:29:21;99551.94;;;-3.02;85.89
59391;BME280;53405;57.012;40.984;2023-01-29T15:32:25;99561.44;;;-2.77;86.76
59391;BME280;53405;57.012;40.984;2023-01-29T15:35:33;99562.25;;;-3.02;85.97
59391;BME280;53405;57.012;40.984;2023-01-29T15:38:23;99553.50;;;-2.99;86.41
59391;BME280;53405;57.012;40.984;2023-01-29T15:41:19;99565.31;;;-3.10;85.61
59391;BME280;53405;57.012;40.984;2023-01-29T15:44:18;99558.47;;;-3.36;86.27
59391;BME280;53405;57.012;40.984;2023-01-29T15:47:08;99558.25;;;-3.33;86.20
59391;BME280;53405;57.012;40.984;2023-01-29T15:49:56;99556.84;;;-3.37;88.62
59391;BME280;53405;57.012;40.984;2023-01-29T15:52:47;99565.41;;;-3.24;87.56
59391;BME280;53405;57.012;40.984;2023-01-29T15:55:36;99569.28;;;-3.31;86.05
59391;BME280;53405;57.012;40.984;2023-01-29T15:58:28;99562.59;;;-3.34;86.29
59391;BME280;53405;57.012;40.984;2023-01-29T16:01:17;99557.34;;;-3.32;85.74
59391;BME280;53405;57.012;40.984;2023-01-29T16:04:10;99541.22;;;-3.49;85.61
59391;BME280;53405;57.012;40.984;2023-01-29T16:07:00;99557.44;;;-3.47;86.32
59391;BME280;53405;57.012;40.984;2023-01-29T16:09:49;99546.44;;;-3.36;85.80
59391;BME280;53405;57.012;40.984;2023-01-29T16:12:37;99555.03;;;-3.50;85.92
59391;BME280;53405;57.012;40.984;2023-01-29T16:15:34;99543.53;;;-3.31;86.64
59391;BME280;53405;57.012;40.984;2023-01-29T16:18:34;99544.88;;;-3.38;85.39
59391;BME280;53405;57.012;40.984;2023-01-29T16:21:33;99542.75;;;-3.59;85.41
59391;BME280;53405;57.012;40.984;2023-01-29T16:24:23;99525.28;;;-3.41;85.96
59391;BME280;53405;57.012;40.984;2023-01-29T16:27:12;99532.22;;;-3.16;85.55
59391;BME280;53405;57.012;40.984;2023-01-29T16:30:03;99519.63;;;-3.46;85.16
59391;BME280;53405;57.012;40.984;2023-01-29T16:33:02;99516.22;;;-3.47;85.13
59391;BME280;53405;57.012;40.984;2023-01-29T16:35:52;99519.81;;;-3.49;84.77
59391;BME280;53405;57.012;40.984;2023-01-29T16:38:39;99514.28;;;-3.43;84.76
59391;BME280;53405;57.012;40.984;2023-01-29T16:41:32;99521.50;;;-3.35;83.70
59391;BME280;53405;57.012;40.984;2023-01-29T16:44:37;99481.75;;;-3.84;84.74
59391;BME280;53405;57.012;40.984;2023-01-29T16:56:02;99506.00;;;-3.61;86.55
59391;BME280;53405;57.012;40.984;2023-01-29T16:58:54;99492.81;;;-3.56;86.74
59391;BME280;53405;57.012;40.984;2023-01-29T17:01:42;99488.81;;;-3.48;86.02
59391;BME280;53405;57.012;40.984;2023-01-29T17:04:32;99506.31;;;-3.53;87.57
59391;BME280;53405;57.012;40.984;2023-01-29T17:07:19;99513.09;;;-3.52;86.34
59391;BME280;53405;57.012;40.984;2023-01-29T17:10:16;99504.59;;;-3.79;86.75
59391;BME280;53405;57.012;40.984;2023-01-29T17:13:07;99501.66;;;-3.60;87.41
59391;BME280;53405;57.012;40.984;2023-01-29T17:16:01;99500.69;;;-3.45;86.60
59391;BME280;53405;57.012;40.984;2023-01-29T17:18:49;99497.25;;;-3.58;85.71